M I D A S
Marine Information and Data Acquisition System
Tripno 1397 of the Zeeleeuw from 2007-08-06 07:02:02 to 2007-08-06 13:38:20
Back to CruiseResearch ActivitiesStationsMapUnderway DataData graphs

EquipmentUnitsComment
TimeDGPSUTC
LatitudeDGPSDM.mWGS84
LongitudeDGPSDM.mWGS84
HeadingGyrodeg 
SOGDGPSknotsSpeed over ground
COGDGPSdegCourse over ground
DepthEcho soundermeters200 kHz
Missing or incorrect values are displayed as -999
Navigation data collected by the RV Zeeleeuw from 2007-08-06 06:42:22 to 2007-08-06 13:51:07
                                                                                    Next 1000 lines
Time Latitude Longitude Heading SOG COG Depth
2007-08-06 06:42:31 51°13.597 2°56.093 111.2 1 283 10.4
2007-08-06 06:42:37 51°13.598 2°56.09 110.9 1.3 288 10.6
2007-08-06 06:42:42 51°13.598 2°56.086 111.1 1.6 289 10.6
2007-08-06 06:42:47 51°13.599 2°56.082 111.9 1.9 290 10.7
2007-08-06 06:42:52 51°13.6 2°56.078 113.2 2.2 293 10.7
2007-08-06 06:42:57 51°13.602 2°56.072 114.6 2.6 294 -999
2007-08-06 06:43:02 51°13.604 2°56.066 115.9 3 295 -999
2007-08-06 06:43:07 51°13.605 2°56.06 116.6 3.3 295 -999
2007-08-06 06:43:12 51°13.608 2°56.053 117.2 3.5 294 -999
2007-08-06 06:43:17 51°13.61 2°56.046 117.7 3.7 295 -999
2007-08-06 06:43:22 51°13.612 2°56.038 118.5 3.8 295 -999
2007-08-06 06:43:27 51°13.615 2°56.03 119.5 4 297 -999
2007-08-06 06:43:32 51°13.617 2°56.022 120.7 4.2 297 -999
2007-08-06 06:43:37 51°13.62 2°56.013 121.8 4.5 299 -999
2007-08-06 06:43:42 51°13.623 2°56.004 122.8 4.7 299 -999
2007-08-06 06:43:47 51°13.627 2°55.995 124 4.8 302 -999
2007-08-06 06:43:52 51°13.631 2°55.985 124.8 4.9 302 -999
2007-08-06 06:43:57 51°13.635 2°55.976 125.5 5.1 303 -999
2007-08-06 06:44:02 51°13.638 2°55.966 126.1 5.2 303 -999
2007-08-06 06:44:07 51°13.643 2°55.957 126.4 5.2 304 -999
2007-08-06 06:44:12 51°13.647 2°55.947 126.8 5.4 304 -999
2007-08-06 06:44:17 51°13.651 2°55.937 126.9 5.4 305 -999
2007-08-06 06:44:22 51°13.655 2°55.927 126.9 5.5 305 -999
2007-08-06 06:44:27 51°13.659 2°55.917 126.5 5.6 304 -999
2007-08-06 06:44:32 51°13.664 2°55.907 125.9 5.4 304 -999
2007-08-06 06:44:37 51°13.668 2°55.897 124.7 5.1 303 -999
2007-08-06 06:44:42 51°13.671 2°55.888 123.3 4.9 302 -999
2007-08-06 06:44:47 51°13.674 2°55.879 121.7 4.7 300 -999
2007-08-06 06:44:52 51°13.677 2°55.87 120.2 4.5 299 -999
2007-08-06 06:44:57 51°13.68 2°55.862 117.7 4.3 297 -999
2007-08-06 06:45:02 51°13.683 2°55.854 115.6 4.2 296 -999
2007-08-06 06:45:07 51°13.685 2°55.846 113.6 4 294 -999
2007-08-06 06:45:12 51°13.687 2°55.838 112.2 3.9 294 -999
2007-08-06 06:45:17 51°13.689 2°55.83 109.9 3.9 292 -999
2007-08-06 06:45:22 51°13.691 2°55.822 107.9 3.8 290 -999
2007-08-06 06:45:27 51°13.693 2°55.814 105.8 3.8 288 -999
2007-08-06 06:45:32 51°13.694 2°55.806 104 3.7 286 -999
2007-08-06 06:45:37 51°13.695 2°55.798 101.2 3.6 284 -999
2007-08-06 06:45:42 51°13.696 2°55.791 98.7 3.5 281 -999
2007-08-06 06:45:47 51°13.697 2°55.784 96.1 3.3 279 -999
2007-08-06 06:45:52 51°13.697 2°55.777 93.6 3.1 276 -999
2007-08-06 06:45:57 51°13.698 2°55.77 91.7 3 274 -999
2007-08-06 06:46:02 51°13.698 2°55.764 89 2.8 272 -999
2007-08-06 06:46:07 51°13.698 2°55.758 87.4 2.7 269 -999
2007-08-06 06:46:12 51°13.697 2°55.752 85.4 2.5 268 -999
2007-08-06 06:46:17 51°13.697 2°55.747 83.5 2.3 264 14.3
2007-08-06 06:46:22 51°13.697 2°55.743 82.6 2.1 265 14.5
2007-08-06 06:46:27 51°13.697 2°55.739 81.1 1.8 262 14.3
2007-08-06 06:46:32 51°13.696 2°55.735 79.5 1.5 265 14.4
2007-08-06 06:46:37 51°13.696 2°55.733 77.7 1.3 262 14.5
2007-08-06 06:46:42 51°13.696 2°55.731 76.1 0.8 274 14.5
2007-08-06 06:46:47 51°13.696 2°55.731 74.1 0.2 336 14.5
2007-08-06 06:46:51 51°13.697 2°55.731 71.1 0.9 41 14.5
2007-08-06 06:46:57 51°13.699 2°55.735 65.9 1.7 43 14.4
2007-08-06 06:47:02 51°13.702 2°55.738 58.5 2.3 41 14.4
2007-08-06 06:47:07 51°13.705 2°55.741 49.8 2.5 30 14.8
2007-08-06 06:47:12 51°13.708 2°55.744 41.1 2.7 28 15
2007-08-06 06:47:16 51°13.711 2°55.746 33.9 2.8 20 15.4
2007-08-06 06:47:22 51°13.716 2°55.748 27 2.9 16 15.4
2007-08-06 06:47:27 51°13.719 2°55.749 20.6 2.9 9 15.7
2007-08-06 06:47:31 51°13.723 2°55.749 14.5 3.1 7 15.1
2007-08-06 06:47:37 51°13.728 2°55.749 8.9 2.9 358 14.8
2007-08-06 06:47:42 51°13.731 2°55.749 2.9 2.5 357 14.6
2007-08-06 06:47:47 51°13.734 2°55.749 358.6 1.7 358 14.6
2007-08-06 06:47:52 51°13.735 2°55.749 355.9 1 3 14.3
2007-08-06 06:47:56 51°13.735 2°55.749 352.8 0.3 47 14.2
2007-08-06 06:48:02 51°13.735 2°55.75 350.3 0.4 122 14.2
2007-08-06 06:48:07 51°13.735 2°55.751 349.6 0.3 81 14.3
2007-08-06 06:48:12 51°13.736 2°55.751 350.1 0.8 6 14.3
2007-08-06 06:48:17 51°13.738 2°55.751 351.1 1.3 353 14.2
2007-08-06 06:48:22 51°13.741 2°55.749 349.8 2.1 344 14
2007-08-06 06:48:27 51°13.744 2°55.747 345.6 2.8 337 13.6
2007-08-06 06:48:32 51°13.748 2°55.743 338.8 3.1 326 13
2007-08-06 06:48:37 51°13.752 2°55.739 330.4 3.2 324 12.6
2007-08-06 06:48:42 51°13.755 2°55.734 324.8 3.4 322 12.4
2007-08-06 06:48:47 51°13.759 2°55.729 321.8 3.6 319 12.3
2007-08-06 06:48:52 51°13.763 2°55.724 320 3.9 318 12.2
2007-08-06 06:48:57 51°13.767 2°55.717 319.2 4.2 317 12.1
2007-08-06 06:49:02 51°13.772 2°55.71 318.4 4.7 317 12.2
2007-08-06 06:49:07 51°13.777 2°55.702 317.9 5.1 316 12.4
2007-08-06 06:49:11 51°13.782 2°55.695 318.4 5.4 318 12.5
2007-08-06 06:49:17 51°13.789 2°55.686 319.9 4.7 318 12.6
2007-08-06 06:49:22 51°13.795 2°55.677 320.8 6 320 12.5
2007-08-06 06:49:27 51°13.802 2°55.668 322.2 6.3 322 12.7
2007-08-06 06:49:32 51°13.809 2°55.66 324.4 6.5 325 12.8
2007-08-06 06:49:36 51°13.815 2°55.654 327.3 6.7 328 13.1
2007-08-06 06:49:42 51°13.825 2°55.645 330.5 6.9 330 13.3
2007-08-06 06:49:47 51°13.834 2°55.638 333.6 7 332 13.3
2007-08-06 06:49:51 51°13.842 2°55.633 335.9 7.2 333 13.3
2007-08-06 06:49:57 51°13.852 2°55.624 337.2 7.3 334 13.2
2007-08-06 06:50:02 51°13.862 2°55.617 338.2 7.4 334 13.2
2007-08-06 06:50:07 51°13.871 2°55.61 338.6 7.5 334 13.3
2007-08-06 06:50:12 51°13.881 2°55.603 339 7.6 334 13.1
2007-08-06 06:50:16 51°13.888 2°55.597 339 7.6 335 13.1
2007-08-06 06:50:22 51°13.9 2°55.589 339 7.7 334 13.2
2007-08-06 06:50:27 51°13.911 2°55.583 339.3 7.7 335 13.5
2007-08-06 06:50:32 51°13.92 2°55.576 339.4 7.8 335 13.7
2007-08-06 06:50:37 51°13.93 2°55.569 339.4 7.7 336 13.3
2007-08-06 06:50:42 51°13.94 2°55.561 339.4 7.8 336 13.1
2007-08-06 06:50:47 51°13.95 2°55.554 340.3 7.8 337 13.2
2007-08-06 06:50:52 51°13.959 2°55.547 341.2 7.8 337 13.1
2007-08-06 06:50:57 51°13.969 2°55.54 341.3 7.9 337 13
2007-08-06 06:51:02 51°13.979 2°55.533 341 7.8 338 13.1
2007-08-06 06:51:07 51°13.989 2°55.526 340.9 7.9 337 13.1
2007-08-06 06:51:12 51°13.999 2°55.519 340.6 7.9 336 13.2
2007-08-06 06:51:17 51°14.009 2°55.512 340.2 7.9 336 13.1
2007-08-06 06:51:22 51°14.019 2°55.504 340.2 7.9 336 13
2007-08-06 06:51:27 51°14.029 2°55.497 339.9 7.9 336 12.8
2007-08-06 06:51:31 51°14.037 2°55.491 339.4 7.9 336 13
2007-08-06 06:51:37 51°14.049 2°55.482 339.4 7.9 336 12.9
2007-08-06 06:51:42 51°14.058 2°55.475 339.7 7.9 335 13
2007-08-06 06:51:47 51°14.069 2°55.467 339.5 8 335 13.1
2007-08-06 06:51:52 51°14.079 2°55.46 339.3 8 335 -999
2007-08-06 06:51:57 51°14.088 2°55.452 339.4 8 335 12.8
2007-08-06 06:52:02 51°14.098 2°55.445 339.4 8 335 12.9
2007-08-06 06:52:07 51°14.108 2°55.437 339.1 7.9 335 12.9
2007-08-06 06:52:12 51°14.118 2°55.43 338.9 7.9 334 12.9
2007-08-06 06:52:17 51°14.128 2°55.421 338 7.9 332 12.9
2007-08-06 06:52:22 51°14.137 2°55.413 336.7 7.9 332 12.9
2007-08-06 06:52:27 51°14.147 2°55.405 335.5 7.8 331 12.9
2007-08-06 06:52:32 51°14.157 2°55.396 334.6 7.8 331 -999
2007-08-06 06:52:37 51°14.166 2°55.388 333.1 7.8 329 12.9
2007-08-06 06:52:42 51°14.175 2°55.378 331.2 7.8 327 -999
2007-08-06 06:52:47 51°14.184 2°55.368 329.7 7.8 325 -999
2007-08-06 06:52:52 51°14.192 2°55.358 328.7 7.8 324 12.9
2007-08-06 06:52:57 51°14.201 2°55.347 327 7.8 322 12.9
2007-08-06 06:53:02 51°14.209 2°55.336 325.5 7.8 320 -999
2007-08-06 06:53:07 51°14.217 2°55.325 323.7 7.8 319 -999
2007-08-06 06:53:12 51°14.225 2°55.314 322.6 7.8 319 13
2007-08-06 06:53:17 51°14.234 2°55.301 321.7 8.1 317 12.9
2007-08-06 06:53:22 51°14.242 2°55.288 320.3 8.4 315 12.9
2007-08-06 06:53:27 51°14.25 2°55.275 319.3 8.7 315 -999
2007-08-06 06:53:32 51°14.259 2°55.26 318.4 9 314 12.9
2007-08-06 06:53:37 51°14.268 2°55.246 318 9.2 314 12.9
2007-08-06 06:53:42 51°14.277 2°55.23 317.9 9.4 311 12.6
2007-08-06 06:53:47 51°14.285 2°55.214 316.3 9.6 310 12.7
2007-08-06 06:53:52 51°14.294 2°55.197 314.9 9.7 310 12.9
2007-08-06 06:53:56 51°14.301 2°55.184 313.9 9.8 308 12.8
2007-08-06 06:54:02 51°14.311 2°55.163 312.9 10 309 13
2007-08-06 06:54:07 51°14.32 2°55.145 312.8 10.2 309 13
2007-08-06 06:54:11 51°14.327 2°55.131 312.8 10.4 309 13.1
2007-08-06 06:54:17 51°14.338 2°55.11 313 10.5 310 13.1
2007-08-06 06:54:22 51°14.348 2°55.091 313.4 10.7 309 13.1
2007-08-06 06:54:27 51°14.357 2°55.073 313.3 10.8 309 12.9
2007-08-06 06:54:32 51°14.366 2°55.054 313 10.9 308 13
2007-08-06 06:54:36 51°14.374 2°55.039 312.8 10.9 308 13
2007-08-06 06:54:42 51°14.384 2°55.016 312.1 10.8 305 12.9
2007-08-06 06:54:47 51°14.392 2°54.996 309.4 10.8 302 12.9
2007-08-06 06:54:52 51°14.4 2°54.975 305.8 10.7 299 12.9
2007-08-06 06:54:57 51°14.406 2°54.954 302 10.6 295 13
2007-08-06 06:55:02 51°14.411 2°54.932 298.6 10.5 292 13
2007-08-06 06:55:07 51°14.416 2°54.911 293.7 10.4 290 13
2007-08-06 06:55:12 51°14.421 2°54.889 291.1 10.5 289 13
2007-08-06 06:55:17 51°14.426 2°54.866 289.8 10.6 288 13.1
2007-08-06 06:55:22 51°14.43 2°54.844 288.7 10.7 286 13.1
2007-08-06 06:55:27 51°14.433 2°54.821 287.9 10.8 285 13.1
2007-08-06 06:55:32 51°14.437 2°54.797 286.5 10.8 284 13
2007-08-06 06:55:37 51°14.441 2°54.774 285.9 10.9 285 13
2007-08-06 06:55:42 51°14.445 2°54.751 285.9 10.9 283 13
2007-08-06 06:55:47 51°14.447 2°54.727 285.2 10.9 281 13.1
2007-08-06 06:55:52 51°14.45 2°54.703 283 10.9 280 13.1
2007-08-06 06:55:57 51°14.452 2°54.679 281.8 11 278 13.1
2007-08-06 06:56:02 51°14.454 2°54.655 280.3 11 277 13.1
2007-08-06 06:56:07 51°14.455 2°54.63 279.1 11.1 276 13.1
2007-08-06 06:56:12 51°14.456 2°54.606 278.1 11.1 274 13
2007-08-06 06:56:16 51°14.457 2°54.586 276.7 11.1 272 13
2007-08-06 06:56:22 51°14.457 2°54.557 274.5 11 269 12.9
2007-08-06 06:56:27 51°14.456 2°54.533 272.2 11.1 266 13
2007-08-06 06:56:31 51°14.455 2°54.513 269.8 11.1 265 13
2007-08-06 06:56:37 51°14.453 2°54.484 268.3 11.2 263 12.9
2007-08-06 06:56:42 51°14.45 2°54.459 266.4 11.2 262 12.9
2007-08-06 06:56:47 51°14.448 2°54.435 265.2 11.3 261 12.9
2007-08-06 06:56:52 51°14.445 2°54.41 264.4 11.4 260 12.9
2007-08-06 06:56:56 51°14.443 2°54.39 263.5 11.4 260 12.9
2007-08-06 06:57:02 51°14.439 2°54.36 263.4 11.4 259 12.8
2007-08-06 06:57:07 51°14.436 2°54.336 262.7 11.4 259 12.1
2007-08-06 06:57:12 51°14.432 2°54.311 262.4 11.4 255 11.9
2007-08-06 06:57:17 51°14.427 2°54.287 260.2 11.4 253 11.6
2007-08-06 06:57:22 51°14.422 2°54.264 258 11.4 250 11.6
2007-08-06 06:57:27 51°14.415 2°54.241 255.4 11.4 243 11.5
2007-08-06 06:57:32 51°14.408 2°54.219 249.8 11.4 242 11.5
2007-08-06 06:57:37 51°14.399 2°54.197 247.2 11.4 238 11.5
2007-08-06 06:57:42 51°14.391 2°54.176 244.1 11.4 238 11.5
2007-08-06 06:57:47 51°14.382 2°54.155 242.2 11.5 234 11.5
2007-08-06 06:57:52 51°14.372 2°54.135 240.4 11.6 235 11.5
2007-08-06 06:57:57 51°14.363 2°54.114 238.9 11.5 233 11.4
2007-08-06 06:58:02 51°14.353 2°54.093 238.1 11.6 233 11.5
2007-08-06 06:58:07 51°14.343 2°54.073 237.5 11.6 232 11.5
2007-08-06 06:58:12 51°14.334 2°54.053 237.3 11.5 233 11.4
2007-08-06 06:58:17 51°14.324 2°54.032 237.1 11.6 234 11.4
2007-08-06 06:58:22 51°14.315 2°54.011 237.5 11.6 234 11.4
2007-08-06 06:58:27 51°14.306 2°53.99 238.1 11.6 236 11.4
2007-08-06 06:58:32 51°14.297 2°53.969 238.8 11.5 236 11.4
2007-08-06 06:58:36 51°14.289 2°53.952 239.5 11.5 236 11.4
2007-08-06 06:58:42 51°14.279 2°53.927 239.9 11.5 237 11.4
2007-08-06 06:58:47 51°14.27 2°53.906 240.2 11.6 235 11.4
2007-08-06 06:58:52 51°14.261 2°53.885 240.2 11.6 236 11.4
2007-08-06 06:58:57 51°14.251 2°53.864 239.7 11.6 234 11.5
2007-08-06 06:59:02 51°14.242 2°53.843 239.1 11.6 235 11.4
2007-08-06 06:59:07 51°14.232 2°53.822 238.9 11.6 233 11.4
2007-08-06 06:59:12 51°14.223 2°53.801 238.6 11.6 234 11.4
2007-08-06 06:59:16 51°14.216 2°53.785 238 11.6 234 11.4
2007-08-06 06:59:22 51°14.204 2°53.76 238.3 11.5 234 11.4
2007-08-06 06:59:27 51°14.195 2°53.739 238.3 11.6 235 11.5
2007-08-06 06:59:32 51°14.186 2°53.718 238.8 11.5 236 11.4
2007-08-06 06:59:37 51°14.177 2°53.697 240 11.5 235 11.5
2007-08-06 06:59:42 51°14.168 2°53.676 239.7 11.6 237 11.5
2007-08-06 06:59:47 51°14.16 2°53.654 240 11.5 237 11.5
2007-08-06 06:59:52 51°14.151 2°53.633 241.1 11.6 237 11.5
2007-08-06 06:59:57 51°14.142 2°53.611 241.3 11.6 239 11.5
2007-08-06 07:00:02 51°14.134 2°53.589 242.3 11.6 238 11.5
2007-08-06 07:00:07 51°14.126 2°53.568 242.4 11.6 239 11.5
2007-08-06 07:00:12 51°14.117 2°53.546 242.4 11.6 239 11.6
2007-08-06 07:00:17 51°14.109 2°53.524 242.6 11.6 239 11.6
2007-08-06 07:00:22 51°14.101 2°53.502 243 11.6 239 11.6
2007-08-06 07:00:27 51°14.093 2°53.48 243 11.6 239 11.6
2007-08-06 07:00:31 51°14.086 2°53.462 243.1 11.5 240 11.6
2007-08-06 07:00:37 51°14.076 2°53.436 243.1 11.6 239 11.6
2007-08-06 07:00:42 51°14.068 2°53.414 242.9 11.5 240 11.6
2007-08-06 07:00:47 51°14.06 2°53.392 242.9 11.5 238 11.6
2007-08-06 07:00:52 51°14.052 2°53.37 242.5 11.5 238 11.7
2007-08-06 07:00:56 51°14.045 2°53.353 242.4 11.5 237 11.7
2007-08-06 07:01:02 51°14.034 2°53.328 241.6 11.5 237 11.7
2007-08-06 07:01:07 51°14.026 2°53.307 241.1 11.5 237 11.7
2007-08-06 07:01:12 51°14.017 2°53.285 241 11.4 238 11.7
2007-08-06 07:01:17 51°14.009 2°53.264 241.6 11.4 238 11.7
2007-08-06 07:01:22 51°14.001 2°53.242 242.1 11.4 239 11.8
2007-08-06 07:01:27 51°13.993 2°53.221 242.5 11.4 239 11.8
2007-08-06 07:01:32 51°13.984 2°53.199 243.1 11.4 238 11.8
2007-08-06 07:01:36 51°13.978 2°53.181 242.9 11.5 240 11.8
2007-08-06 07:01:42 51°13.968 2°53.156 243.1 11.5 239 11.9
2007-08-06 07:01:47 51°13.96 2°53.134 243.6 11.4 240 11.9
2007-08-06 07:01:52 51°13.952 2°53.112 243.6 11.5 239 11.9
2007-08-06 07:01:57 51°13.944 2°53.09 243.7 11.6 240 11.8
2007-08-06 07:02:02 51°13.936 2°53.068 243.4 11.5 240 11.9
2007-08-06 07:02:07 51°13.928 2°53.046 243.4 11.5 239 11.9
2007-08-06 07:02:12 51°13.92 2°53.024 243.4 11.5 239 11.9
2007-08-06 07:02:17 51°13.911 2°53.002 243.3 11.6 239 12
2007-08-06 07:02:22 51°13.903 2°52.98 243.1 11.6 239 11.9
2007-08-06 07:02:27 51°13.895 2°52.958 243.1 11.6 239 12.1
2007-08-06 07:02:32 51°13.887 2°52.936 243.3 11.7 239 12.1
2007-08-06 07:02:37 51°13.878 2°52.914 243.1 11.6 240 12.2
2007-08-06 07:02:42 51°13.87 2°52.892 243.2 11.6 239 12.1
2007-08-06 07:02:47 51°13.862 2°52.87 242.9 11.6 239 12.1
2007-08-06 07:02:52 51°13.854 2°52.848 243 11.6 239 12.1
2007-08-06 07:02:57 51°13.845 2°52.825 243.1 11.6 240 12
2007-08-06 07:03:02 51°13.837 2°52.803 243.5 11.7 240 12.1
2007-08-06 07:03:07 51°13.829 2°52.781 243.3 11.6 240 12.2
2007-08-06 07:03:12 51°13.821 2°52.759 243.3 11.6 239 12.1
2007-08-06 07:03:16 51°13.814 2°52.741 243.1 11.7 239 12.1
2007-08-06 07:03:22 51°13.804 2°52.715 243 11.6 239 12.1
2007-08-06 07:03:27 51°13.796 2°52.693 243 11.6 239 12.2
2007-08-06 07:03:32 51°13.788 2°52.671 242.9 11.6 239 12.2
2007-08-06 07:03:37 51°13.779 2°52.649 242.8 11.6 239 12.1
2007-08-06 07:03:42 51°13.771 2°52.627 242.7 11.5 239 12.2
2007-08-06 07:03:47 51°13.763 2°52.605 242.7 11.5 239 12.2
2007-08-06 07:03:52 51°13.754 2°52.584 242.8 11.5 239 12.2
2007-08-06 07:03:57 51°13.746 2°52.562 242.9 11.4 240 12.1
2007-08-06 07:04:02 51°13.738 2°52.54 243.3 11.4 239 12.2
2007-08-06 07:04:07 51°13.73 2°52.518 243.6 11.4 240 12.2
2007-08-06 07:04:12 51°13.722 2°52.497 243.6 11.4 240 12.3
2007-08-06 07:04:17 51°13.714 2°52.475 243.8 11.4 239 12.2
2007-08-06 07:04:22 51°13.706 2°52.453 243.4 11.4 240 12.3
2007-08-06 07:04:27 51°13.698 2°52.432 243.4 11.4 240 12.5
2007-08-06 07:04:32 51°13.69 2°52.41 243.4 11.4 239 12.3
2007-08-06 07:04:37 51°13.682 2°52.388 243.1 11.4 239 12.3
2007-08-06 07:04:42 51°13.674 2°52.367 243 11.4 238 12.2
2007-08-06 07:04:47 51°13.666 2°52.345 242.5 11.4 239 12.2
2007-08-06 07:04:52 51°13.657 2°52.324 242.5 11.4 239 12.3
2007-08-06 07:04:57 51°13.649 2°52.302 242.7 11.4 239 12.3
2007-08-06 07:05:02 51°13.641 2°52.28 242.7 11.4 240 12.3
2007-08-06 07:05:07 51°13.633 2°52.259 243.1 11.4 239 12.3
2007-08-06 07:05:12 51°13.625 2°52.237 243.1 11.4 240 12.3
2007-08-06 07:05:17 51°13.617 2°52.215 243.2 11.4 239 12.3
2007-08-06 07:05:22 51°13.609 2°52.194 243.4 11.4 239 12.3
2007-08-06 07:05:27 51°13.601 2°52.172 243.3 11.4 239 12.3
2007-08-06 07:05:32 51°13.593 2°52.15 243.3 11.4 240 12.4
2007-08-06 07:05:36 51°13.586 2°52.133 243.4 11.5 239 12.3
2007-08-06 07:05:42 51°13.577 2°52.107 243.4 11.5 240 12.3
2007-08-06 07:05:47 51°13.569 2°52.085 243.8 11.5 239 12.3
2007-08-06 07:05:52 51°13.561 2°52.063 243.6 11.5 240 12.4
2007-08-06 07:05:57 51°13.553 2°52.041 243.3 11.5 240 12.4
2007-08-06 07:06:02 51°13.545 2°52.02 243.6 11.4 239 12.4
2007-08-06 07:06:07 51°13.536 2°51.998 243.3 11.5 240 12.5
2007-08-06 07:06:12 51°13.528 2°51.976 243.1 11.6 239 12.4
2007-08-06 07:06:17 51°13.52 2°51.954 243.1 11.5 239 12.5
2007-08-06 07:06:22 51°13.512 2°51.932 243.1 11.5 239 12.4
2007-08-06 07:06:27 51°13.504 2°51.91 243.1 11.6 239 12.5
2007-08-06 07:06:32 51°13.495 2°51.888 243 11.7 239 12.5
2007-08-06 07:06:37 51°13.487 2°51.866 242.9 11.5 240 12.4
2007-08-06 07:06:42 51°13.479 2°51.844 243.3 11.6 239 12.4
2007-08-06 07:06:47 51°13.471 2°51.822 243 11.6 239 12.4
2007-08-06 07:06:52 51°13.463 2°51.8 243 11.5 239 12.4
2007-08-06 07:06:57 51°13.454 2°51.778 243.1 11.5 239 12.4
2007-08-06 07:07:02 51°13.446 2°51.756 242.9 11.5 239 12.5
2007-08-06 07:07:07 51°13.438 2°51.735 242.7 11.5 239 12.5
2007-08-06 07:07:11 51°13.431 2°51.717 243.1 11.4 239 12.5
2007-08-06 07:07:17 51°13.422 2°51.691 243.1 11.4 239 12.5
2007-08-06 07:07:22 51°13.413 2°51.67 243.1 11.5 238 12.5
2007-08-06 07:07:27 51°13.404 2°51.649 242.3 11.5 236 12.4
2007-08-06 07:07:32 51°13.395 2°51.629 240.8 11.4 233 12.4
2007-08-06 07:07:36 51°13.387 2°51.612 238.7 11.4 233 12.5
2007-08-06 07:07:42 51°13.375 2°51.589 237.3 11.4 231 12.4
2007-08-06 07:07:47 51°13.365 2°51.569 236.6 11.4 231 12.3
2007-08-06 07:07:52 51°13.355 2°51.55 235.7 11.4 230 12.4
2007-08-06 07:07:57 51°13.345 2°51.53 235 11.4 230 12.4
2007-08-06 07:08:02 51°13.335 2°51.511 234.9 11.4 229 12.3
2007-08-06 07:08:07 51°13.325 2°51.492 234.5 11.4 231 12.3
2007-08-06 07:08:12 51°13.315 2°51.472 235 11.4 231 12.4
2007-08-06 07:08:17 51°13.305 2°51.452 235.5 11.4 232 12.3
2007-08-06 07:08:22 51°13.295 2°51.433 235.8 11.4 231 12.3
2007-08-06 07:08:27 51°13.285 2°51.413 236.1 11.4 232 12.4
2007-08-06 07:08:32 51°13.275 2°51.393 236.1 11.4 231 12.3
2007-08-06 07:08:37 51°13.266 2°51.373 236.3 11.4 232 12.3
2007-08-06 07:08:42 51°13.256 2°51.353 236.2 11.5 232 12.2
2007-08-06 07:08:47 51°13.246 2°51.333 236.2 11.4 233 12.3
2007-08-06 07:08:52 51°13.237 2°51.313 237.3 11.4 233 12.2
2007-08-06 07:08:57 51°13.228 2°51.293 237.6 11.4 236 12.3
2007-08-06 07:09:02 51°13.219 2°51.272 238.8 11.4 234 12.2
2007-08-06 07:09:07 51°13.21 2°51.252 239.2 11.4 235 12.2
2007-08-06 07:09:12 51°13.201 2°51.231 239.1 11.4 235 12.2
2007-08-06 07:09:17 51°13.192 2°51.211 239.5 11.3 236 12.3
2007-08-06 07:09:22 51°13.183 2°51.19 239.5 11.4 235 12.2
2007-08-06 07:09:27 51°13.174 2°51.17 239.3 11.4 235 12.2
2007-08-06 07:09:31 51°13.167 2°51.153 239.5 11.4 235 12.3
2007-08-06 07:09:37 51°13.156 2°51.129 239.5 11.3 235 12.3
2007-08-06 07:09:42 51°13.147 2°51.108 239.3 11.3 235 12.3
2007-08-06 07:09:47 51°13.138 2°51.088 239.5 11.3 235 12.3
2007-08-06 07:09:52 51°13.129 2°51.067 239.4 11.4 234 12.3
2007-08-06 07:09:57 51°13.12 2°51.047 239 11.3 235 12.3
2007-08-06 07:10:02 51°13.111 2°51.026 239 11.3 235 12.3
2007-08-06 07:10:07 51°13.102 2°51.006 239 11.3 235 12.3
2007-08-06 07:10:12 51°13.093 2°50.985 239.1 11.3 235 12.3
2007-08-06 07:10:17 51°13.084 2°50.965 239.2 11.3 235 12.3
2007-08-06 07:10:22 51°13.075 2°50.944 239.5 11.3 235 12.3
2007-08-06 07:10:27 51°13.066 2°50.924 239.6 11.3 235 12.2
2007-08-06 07:10:32 51°13.057 2°50.903 239.5 11.3 236 12.1
2007-08-06 07:10:37 51°13.048 2°50.883 239.5 11.3 236 12.2
2007-08-06 07:10:42 51°13.039 2°50.862 239.7 11.3 236 12.2
2007-08-06 07:10:47 51°13.03 2°50.841 239.7 11.4 235 12.2
2007-08-06 07:10:52 51°13.022 2°50.82 239.7 11.4 236 12.2
2007-08-06 07:10:57 51°13.013 2°50.8 239.6 11.4 235 12.3
2007-08-06 07:11:02 51°13.004 2°50.779 239.5 11.4 236 12.2
2007-08-06 07:11:07 51°12.995 2°50.759 239.3 11.4 235 12.3
2007-08-06 07:11:12 51°12.986 2°50.738 239.3 11.4 235 12.2
2007-08-06 07:11:17 51°12.977 2°50.717 239.2 11.4 236 12.3
2007-08-06 07:11:22 51°12.968 2°50.696 239.7 11.4 237 12.3
2007-08-06 07:11:27 51°12.96 2°50.675 240.2 11.4 238 12.2
2007-08-06 07:11:32 51°12.952 2°50.653 240.7 11.3 238 12.2
2007-08-06 07:11:37 51°12.943 2°50.632 241.6 11.3 238 12.2
2007-08-06 07:11:42 51°12.935 2°50.611 241.6 11.4 238 12.1
2007-08-06 07:11:47 51°12.927 2°50.589 241.6 11.4 238 12.1
2007-08-06 07:11:51 51°12.92 2°50.572 241.6 11.3 238 12.1
2007-08-06 07:11:57 51°12.91 2°50.547 241.6 11.4 238 12.1
2007-08-06 07:12:02 51°12.901 2°50.526 241.5 11.4 237 12.1
2007-08-06 07:12:07 51°12.893 2°50.505 241 11.4 237 12.1
2007-08-06 07:12:12 51°12.884 2°50.484 240.6 11.4 236 12.1
2007-08-06 07:12:16 51°12.877 2°50.466 240 11.4 237 12.1
2007-08-06 07:12:22 51°12.867 2°50.441 240 11.5 237 12.1
2007-08-06 07:12:27 51°12.858 2°50.42 240.2 11.5 238 12.1
2007-08-06 07:12:32 51°12.85 2°50.398 240.5 11.4 238 12.2
2007-08-06 07:12:37 51°12.841 2°50.377 241 11.4 237 12.2
2007-08-06 07:12:42 51°12.833 2°50.355 241 11.4 238 12.2
2007-08-06 07:12:47 51°12.824 2°50.334 241 11.5 238 12.1
2007-08-06 07:12:52 51°12.816 2°50.313 241.3 11.4 238 12.1
2007-08-06 07:12:57 51°12.808 2°50.291 241.3 11.4 239 12.2
2007-08-06 07:13:02 51°12.8 2°50.27 241.7 11.4 239 12.2
2007-08-06 07:13:07 51°12.791 2°50.248 241.7 11.4 239 12.2
2007-08-06 07:13:12 51°12.783 2°50.227 241.6 11.4 238 12.2
2007-08-06 07:13:17 51°12.774 2°50.205 241.5 11.5 238 12.1
2007-08-06 07:13:22 51°12.766 2°50.184 241 11.4 239 12.1
2007-08-06 07:13:27 51°12.758 2°50.162 241.3 11.4 238 12.1
2007-08-06 07:13:32 51°12.75 2°50.14 241.4 11.4 239 12.2
2007-08-06 07:13:37 51°12.741 2°50.119 241.5 11.5 238 12.2
2007-08-06 07:13:42 51°12.733 2°50.097 241.1 11.5 239 12.1
2007-08-06 07:13:47 51°12.724 2°50.075 241 11.6 238 12.1
2007-08-06 07:13:52 51°12.716 2°50.054 240.9 11.5 239 12.1
2007-08-06 07:13:57 51°12.708 2°50.032 240.9 11.6 237 12.1
2007-08-06 07:14:02 51°12.699 2°50.01 240.4 11.5 238 12.1
2007-08-06 07:14:07 51°12.69 2°49.989 240.3 11.5 237 12.1
2007-08-06 07:14:11 51°12.683 2°49.972 240.2 11.6 237 12.1
2007-08-06 07:14:16 51°12.675 2°49.95 240 11.6 237 12.1
2007-08-06 07:14:22 51°12.664 2°49.924 240.2 11.6 238 12
2007-08-06 07:14:27 51°12.656 2°49.902 240.4 11.6 239 12
2007-08-06 07:14:32 51°12.648 2°49.881 241.1 11.6 239 12
2007-08-06 07:14:36 51°12.641 2°49.863 241.5 11.6 239 12
2007-08-06 07:14:42 51°12.631 2°49.837 241.6 11.6 239 12
2007-08-06 07:14:47 51°12.623 2°49.815 241.8 11.5 239 12
2007-08-06 07:14:52 51°12.615 2°49.793 241.9 11.5 239 12.1
2007-08-06 07:14:57 51°12.607 2°49.771 241.9 11.6 239 12
2007-08-06 07:15:02 51°12.598 2°49.749 241.5 11.5 239 12
2007-08-06 07:15:07 51°12.59 2°49.728 241.4 11.5 239 12.1
2007-08-06 07:15:12 51°12.582 2°49.706 240.9 11.5 239 12
2007-08-06 07:15:17 51°12.573 2°49.684 240.9 11.5 239 12
2007-08-06 07:15:22 51°12.565 2°49.663 241.4 11.5 238 12
2007-08-06 07:15:27 51°12.557 2°49.641 241.2 11.5 240 12
2007-08-06 07:15:32 51°12.549 2°49.619 241.5 11.5 239 12
2007-08-06 07:15:37 51°12.541 2°49.597 241.6 11.5 240 12
2007-08-06 07:15:42 51°12.533 2°49.575 241.6 11.5 239 12
2007-08-06 07:15:47 51°12.525 2°49.553 241.9 11.5 240 12
2007-08-06 07:15:52 51°12.517 2°49.531 242.2 11.5 239 12
2007-08-06 07:15:57 51°12.508 2°49.509 241.9 11.5 239 12
2007-08-06 07:16:02 51°12.5 2°49.487 241.6 11.6 239 12
2007-08-06 07:16:07 51°12.492 2°49.466 241.6 11.6 239 12
2007-08-06 07:16:12 51°12.484 2°49.444 241.4 11.6 239 12
2007-08-06 07:16:17 51°12.476 2°49.422 241.4 11.6 240 12
2007-08-06 07:16:22 51°12.468 2°49.4 241.4 11.5 239 12
2007-08-06 07:16:27 51°12.459 2°49.378 241.5 11.5 239 12
2007-08-06 07:16:31 51°12.453 2°49.361 241 11.5 239 11.9
2007-08-06 07:16:37 51°12.443 2°49.334 240.9 11.6 239 12
2007-08-06 07:16:42 51°12.435 2°49.313 241.2 11.6 239 12
2007-08-06 07:16:47 51°12.427 2°49.29 241.4 11.5 240 12
2007-08-06 07:16:52 51°12.419 2°49.269 241.8 11.5 240 12
2007-08-06 07:16:57 51°12.411 2°49.246 241.6 11.6 240 12
2007-08-06 07:17:02 51°12.403 2°49.224 241.9 11.5 242 12
2007-08-06 07:17:07 51°12.395 2°49.202 242.7 11.6 240 11.9
2007-08-06 07:17:12 51°12.388 2°49.179 242.5 11.5 242 12
2007-08-06 07:17:17 51°12.38 2°49.157 242.9 11.5 241 12
2007-08-06 07:17:22 51°12.372 2°49.135 243.1 11.5 242 12
2007-08-06 07:17:27 51°12.364 2°49.113 243 11.5 241 11.9
2007-08-06 07:17:32 51°12.357 2°49.091 243.1 11.5 241 12
2007-08-06 07:17:37 51°12.349 2°49.069 243.1 11.5 241 12
2007-08-06 07:17:42 51°12.342 2°49.046 242.8 11.4 242 11.9
2007-08-06 07:17:47 51°12.334 2°49.024 243.4 11.5 241 12
2007-08-06 07:17:52 51°12.327 2°49.002 243.4 11.5 243 12
2007-08-06 07:17:57 51°12.319 2°48.979 243.8 11.5 241 12
2007-08-06 07:18:02 51°12.311 2°48.957 243.8 11.5 241 12
2007-08-06 07:18:07 51°12.304 2°48.935 243.1 11.5 241 12
2007-08-06 07:18:12 51°12.296 2°48.912 242.9 11.5 241 12
2007-08-06 07:18:17 51°12.288 2°48.89 242.6 11.5 241 12
2007-08-06 07:18:22 51°12.28 2°48.868 242.4 11.5 242 11.9
2007-08-06 07:18:27 51°12.273 2°48.845 242.9 11.5 241 12
2007-08-06 07:18:32 51°12.265 2°48.823 242.9 11.6 242 12
2007-08-06 07:18:37 51°12.257 2°48.8 243 11.6 241 12
2007-08-06 07:18:42 51°12.25 2°48.778 243.3 11.6 242 12
2007-08-06 07:18:47 51°12.242 2°48.755 243.7 11.6 242 12.1
2007-08-06 07:18:52 51°12.235 2°48.732 243.5 11.6 242 12
2007-08-06 07:18:57 51°12.227 2°48.71 243.5 11.7 242 12
2007-08-06 07:19:02 51°12.22 2°48.687 243.1 11.7 242 12
2007-08-06 07:19:07 51°12.212 2°48.665 243.1 11.6 241 12.1
2007-08-06 07:19:12 51°12.204 2°48.642 242.7 11.7 241 12
2007-08-06 07:19:16 51°12.197 2°48.624 242.2 11.7 241 12
2007-08-06 07:19:22 51°12.188 2°48.597 242.1 11.7 241 12
2007-08-06 07:19:27 51°12.18 2°48.574 242.1 11.7 241 12
2007-08-06 07:19:32 51°12.172 2°48.551 242.3 11.7 242 12
2007-08-06 07:19:37 51°12.165 2°48.528 242.8 11.7 242 12.1
2007-08-06 07:19:42 51°12.157 2°48.506 243.1 11.7 242 12
2007-08-06 07:19:47 51°12.15 2°48.483 243.4 11.7 242 12
2007-08-06 07:19:52 51°12.142 2°48.46 243.4 11.7 242 12
2007-08-06 07:19:57 51°12.134 2°48.437 243.4 11.7 241 12.1
2007-08-06 07:20:02 51°12.126 2°48.414 243.2 11.7 242 12
2007-08-06 07:20:07 51°12.119 2°48.391 242.8 11.7 241 12.1
2007-08-06 07:20:12 51°12.111 2°48.369 242.9 11.7 242 12.1
2007-08-06 07:20:17 51°12.103 2°48.346 242.6 11.8 242 12
2007-08-06 07:20:22 51°12.096 2°48.323 243 11.8 243 12
2007-08-06 07:20:27 51°12.088 2°48.3 243.3 11.8 242 12
2007-08-06 07:20:32 51°12.081 2°48.277 243.6 11.7 242 12
2007-08-06 07:20:37 51°12.073 2°48.254 243.6 11.8 241 12
2007-08-06 07:20:42 51°12.065 2°48.231 243.1 11.8 242 12
2007-08-06 07:20:47 51°12.057 2°48.208 243 11.8 242 12
2007-08-06 07:20:52 51°12.049 2°48.185 243.1 11.8 242 12
2007-08-06 07:20:57 51°12.042 2°48.162 243 11.8 242 12
2007-08-06 07:21:02 51°12.034 2°48.139 243 11.8 241 11.9
2007-08-06 07:21:07 51°12.026 2°48.116 242.9 11.8 242 12
2007-08-06 07:21:12 51°12.018 2°48.093 242.8 11.8 242 12
2007-08-06 07:21:17 51°12.011 2°48.07 242.8 11.8 242 12
2007-08-06 07:21:22 51°12.003 2°48.047 243.1 11.8 242 12
2007-08-06 07:21:27 51°11.996 2°48.024 243.4 11.8 243 11.9
2007-08-06 07:21:32 51°11.988 2°48 243.7 11.8 242 12
2007-08-06 07:21:36 51°11.982 2°47.982 243.7 11.8 242 11.9
2007-08-06 07:21:42 51°11.973 2°47.954 243.5 11.8 242 12
2007-08-06 07:21:47 51°11.965 2°47.931 242.9 11.8 242 12
2007-08-06 07:21:52 51°11.957 2°47.908 242.7 11.8 241 12
2007-08-06 07:21:57 51°11.949 2°47.885 242.4 11.9 242 12
2007-08-06 07:22:02 51°11.942 2°47.862 242.4 11.8 242 12
2007-08-06 07:22:07 51°11.934 2°47.839 243 11.9 242 12
2007-08-06 07:22:12 51°11.926 2°47.815 243.1 11.9 243 11.9
2007-08-06 07:22:17 51°11.919 2°47.792 243.8 11.9 243 11.9
2007-08-06 07:22:22 51°11.911 2°47.769 244 11.9 243 11.9
2007-08-06 07:22:27 51°11.904 2°47.746 243.7 11.8 242 11.9
2007-08-06 07:22:32 51°11.896 2°47.723 243.7 11.8 242 11.9
2007-08-06 07:22:37 51°11.888 2°47.7 243.1 11.9 242 11.8
2007-08-06 07:22:42 51°11.88 2°47.676 242.9 11.9 242 11.8
2007-08-06 07:22:47 51°11.873 2°47.653 242.9 11.8 242 11.9
2007-08-06 07:22:52 51°11.865 2°47.63 242.7 11.8 242 11.8
2007-08-06 07:22:57 51°11.858 2°47.607 242.6 11.8 243 11.7
2007-08-06 07:23:02 51°11.85 2°47.584 243.1 11.8 243 11.8
2007-08-06 07:23:07 51°11.843 2°47.56 243.6 11.8 244 11.8
2007-08-06 07:23:12 51°11.835 2°47.537 244.2 11.9 243 11.8
2007-08-06 07:23:17 51°11.828 2°47.514 244 11.8 243 11.7
2007-08-06 07:23:22 51°11.82 2°47.491 244 11.9 242 11.8
2007-08-06 07:23:27 51°11.813 2°47.467 243.2 11.9 243 11.8
2007-08-06 07:23:32 51°11.805 2°47.444 243.3 11.8 242 11.7
2007-08-06 07:23:36 51°11.799 2°47.426 243.4 11.9 242 11.7
2007-08-06 07:23:42 51°11.79 2°47.398 242.8 11.9 242 11.7
2007-08-06 07:23:47 51°11.782 2°47.375 242.5 11.8 243 11.7
2007-08-06 07:23:52 51°11.775 2°47.351 243 11.8 244 11.7
2007-08-06 07:23:57 51°11.768 2°47.328 244 11.8 245 11.7
2007-08-06 07:24:02 51°11.761 2°47.304 245.2 11.9 245 11.6
2007-08-06 07:24:07 51°11.754 2°47.28 245.7 11.9 247 11.7
2007-08-06 07:24:12 51°11.748 2°47.256 246.7 11.9 246 11.7
2007-08-06 07:24:17 51°11.741 2°47.232 247 11.9 247 11.6
2007-08-06 07:24:22 51°11.734 2°47.208 247 11.9 247 11.6
2007-08-06 07:24:27 51°11.727 2°47.184 247.1 11.9 246 11.6
2007-08-06 07:24:32 51°11.721 2°47.16 246.9 11.9 246 11.6
2007-08-06 07:24:37 51°11.714 2°47.136 246.7 11.8 246 11.6
2007-08-06 07:24:42 51°11.707 2°47.112 246.6 11.9 245 11.6
2007-08-06 07:24:47 51°11.7 2°47.088 246.3 11.9 246 11.6
2007-08-06 07:24:52 51°11.694 2°47.064 246.1 11.9 245 11.6
2007-08-06 07:24:57 51°11.687 2°47.041 246 11.9 246 11.6
2007-08-06 07:25:02 51°11.68 2°47.017 245.9 11.9 246 11.6
2007-08-06 07:25:07 51°11.673 2°46.993 246.5 11.9 246 11.6
2007-08-06 07:25:12 51°11.667 2°46.968 246.5 11.9 246 11.6
2007-08-06 07:25:17 51°11.66 2°46.944 246.5 11.9 246 11.6
2007-08-06 07:25:22 51°11.654 2°46.92 246.4 11.9 246 11.6
2007-08-06 07:25:27 51°11.647 2°46.897 246.2 11.9 246 11.6
2007-08-06 07:25:32 51°11.64 2°46.873 246.1 11.9 245 11.6
2007-08-06 07:25:37 51°11.633 2°46.849 245.9 11.9 246 11.6
2007-08-06 07:25:42 51°11.626 2°46.825 246 11.9 245 11.6
2007-08-06 07:25:47 51°11.619 2°46.801 245.9 11.9 246 11.6
2007-08-06 07:25:52 51°11.612 2°46.777 245.7 11.9 245 11.7
2007-08-06 07:25:57 51°11.605 2°46.753 245.5 11.9 245 11.5
2007-08-06 07:26:02 51°11.598 2°46.729 245.4 12 245 11.6
2007-08-06 07:26:07 51°11.592 2°46.705 245.4 12 245 11.6
2007-08-06 07:26:12 51°11.585 2°46.681 245.4 11.9 246 11.6
2007-08-06 07:26:17 51°11.578 2°46.657 245.9 12 247 11.6
2007-08-06 07:26:22 51°11.572 2°46.633 246.5 11.9 247 11.6
2007-08-06 07:26:27 51°11.565 2°46.608 246.7 12 247 11.6
2007-08-06 07:26:32 51°11.559 2°46.584 247.1 12 247 11.7
2007-08-06 07:26:37 51°11.553 2°46.56 247.2 11.9 247 11.7
2007-08-06 07:26:42 51°11.546 2°46.535 247.3 11.9 246 11.7
2007-08-06 07:26:47 51°11.539 2°46.511 246.9 11.9 246 11.8
2007-08-06 07:26:52 51°11.532 2°46.488 246.6 11.9 246 11.7
2007-08-06 07:26:57 51°11.525 2°46.464 246 12 246 11.7
2007-08-06 07:27:02 51°11.518 2°46.44 245.8 12 245 11.7
2007-08-06 07:27:07 51°11.512 2°46.416 245.6 11.9 246 11.7
2007-08-06 07:27:12 51°11.505 2°46.391 245.6 12 246 11.7
2007-08-06 07:27:17 51°11.498 2°46.367 245.9 12 247 11.8
2007-08-06 07:27:22 51°11.492 2°46.343 246.2 12 247 11.8
2007-08-06 07:27:27 51°11.486 2°46.318 246.8 12 247 11.8
2007-08-06 07:27:32 51°11.479 2°46.294 247.2 12 248 11.7
2007-08-06 07:27:37 51°11.473 2°46.269 247.5 12 248 11.8
2007-08-06 07:27:42 51°11.466 2°46.245 247.5 12 247 11.8
2007-08-06 07:27:47 51°11.46 2°46.221 247.3 12 246 11.8
2007-08-06 07:27:52 51°11.453 2°46.197 246.7 11.9 246 11.8
2007-08-06 07:27:57 51°11.446 2°46.173 246.4 11.9 246 11.8
2007-08-06 07:28:02 51°11.439 2°46.149 246.2 11.9 246 11.8
2007-08-06 07:28:07 51°11.433 2°46.125 246 12 245 11.9
2007-08-06 07:28:12 51°11.426 2°46.1 245.8 12 246 11.8
2007-08-06 07:28:16 51°11.421 2°46.081 246 11.9 246 11.8
2007-08-06 07:28:22 51°11.412 2°46.052 246.2 12 246 11.8
2007-08-06 07:28:27 51°11.406 2°46.028 246 12 246 11.9
2007-08-06 07:28:32 51°11.399 2°46.004 246 11.9 246 11.8
2007-08-06 07:28:37 51°11.393 2°45.98 246 11.9 247 11.8
2007-08-06 07:28:42 51°11.386 2°45.955 246.2 11.9 247 11.8
2007-08-06 07:28:47 51°11.38 2°45.931 246.7 11.9 247 11.7
2007-08-06 07:28:52 51°11.373 2°45.906 247.1 11.9 247 11.8
2007-08-06 07:28:57 51°11.367 2°45.882 247.2 11.9 247 11.8
2007-08-06 07:29:02 51°11.36 2°45.858 247.2 11.9 246 11.8
2007-08-06 07:29:07 51°11.353 2°45.834 246.6 12 246 11.9
2007-08-06 07:29:12 51°11.347 2°45.81 246.1 12 246 11.8
2007-08-06 07:29:17 51°11.34 2°45.786 246 12 246 11.8
2007-08-06 07:29:22 51°11.333 2°45.761 245.8 12 246 11.8
2007-08-06 07:29:27 51°11.327 2°45.737 245.9 12 246 11.8
2007-08-06 07:29:32 51°11.32 2°45.713 246 12 248 11.8
2007-08-06 07:29:37 51°11.314 2°45.688 246.7 12 249 11.8
2007-08-06 07:29:42 51°11.308 2°45.663 248 12 249 11.8
2007-08-06 07:29:47 51°11.303 2°45.639 248.7 12 249 11.9
2007-08-06 07:29:52 51°11.297 2°45.614 249 12 250 11.8
2007-08-06 07:29:57 51°11.291 2°45.589 249.3 12 251 11.8
2007-08-06 07:30:02 51°11.286 2°45.564 250 12 251 11.8
2007-08-06 07:30:07 51°11.28 2°45.539 250.3 12 251 11.9
2007-08-06 07:30:12 51°11.275 2°45.514 250.5 11.9 251 11.9
2007-08-06 07:30:17 51°11.269 2°45.489 250.4 12 250 11.9
2007-08-06 07:30:22 51°11.264 2°45.464 250.2 11.9 250 11.9
2007-08-06 07:30:27 51°11.258 2°45.44 250 11.9 250 11.9
2007-08-06 07:30:32 51°11.252 2°45.415 249.7 11.9 250 11.9
2007-08-06 07:30:36 51°11.247 2°45.395 249.5 12 249 11.8
2007-08-06 07:30:42 51°11.24 2°45.366 249.2 12 249 11.9
2007-08-06 07:30:47 51°11.235 2°45.341 248.8 12 250 11.9
2007-08-06 07:30:52 51°11.229 2°45.316 248.9 12 249 11.8
2007-08-06 07:30:57 51°11.223 2°45.291 249 12 250 11.9
2007-08-06 07:31:02 51°11.217 2°45.267 249.3 12 250 11.9
2007-08-06 07:31:07 51°11.212 2°45.242 249.6 12 250 11.9
2007-08-06 07:31:12 51°11.206 2°45.217 249.6 12 250 11.8
2007-08-06 07:31:17 51°11.201 2°45.192 249.6 12 250 11.8
2007-08-06 07:31:22 51°11.195 2°45.167 249.6 12 249 11.8
2007-08-06 07:31:27 51°11.189 2°45.143 249.2 12 250 11.9
2007-08-06 07:31:32 51°11.183 2°45.118 249.2 12 249 11.9
2007-08-06 07:31:37 51°11.177 2°45.093 249.2 12 249 12
2007-08-06 07:31:42 51°11.171 2°45.069 249.2 12 250 12
2007-08-06 07:31:47 51°11.166 2°45.044 249.2 12 250 11.9
2007-08-06 07:31:52 51°11.16 2°45.019 249.5 12 251 11.9
2007-08-06 07:31:57 51°11.154 2°44.994 249.9 12 250 11.8
2007-08-06 07:32:02 51°11.149 2°44.969 250 12 250 12
2007-08-06 07:32:07 51°11.143 2°44.944 249.8 12 250 11.9
2007-08-06 07:32:12 51°11.138 2°44.919 249.8 12 250 11.9
2007-08-06 07:32:17 51°11.132 2°44.894 249.7 12 250 11.9
2007-08-06 07:32:22 51°11.126 2°44.869 249.6 12.1 250 11.9
2007-08-06 07:32:27 51°11.121 2°44.844 249.6 12 250 12
2007-08-06 07:32:32 51°11.115 2°44.819 249.6 12 250 12
2007-08-06 07:32:37 51°11.109 2°44.794 249.6 12 250 12
2007-08-06 07:32:42 51°11.104 2°44.769 249.6 12 250 11.9
2007-08-06 07:32:47 51°11.098 2°44.744 249.6 12 250 12
2007-08-06 07:32:52 51°11.092 2°44.719 249.6 12.1 250 11.9
2007-08-06 07:32:56 51°11.088 2°44.699 249.8 12.1 251 11.9
2007-08-06 07:33:02 51°11.081 2°44.669 249.9 12.1 251 12
2007-08-06 07:33:07 51°11.076 2°44.643 250.1 12.1 251 11.9
2007-08-06 07:33:12 51°11.07 2°44.618 250.3 12.1 251 11.9
2007-08-06 07:33:17 51°11.064 2°44.593 250.2 12.1 250 12
2007-08-06 07:33:22 51°11.059 2°44.568 249.8 12.1 250 11.9
2007-08-06 07:33:27 51°11.053 2°44.543 249.5 12.1 249 12
2007-08-06 07:33:32 51°11.047 2°44.518 249 12.1 249 12
2007-08-06 07:33:37 51°11.041 2°44.494 248.5 12 249 12
2007-08-06 07:33:42 51°11.035 2°44.469 248.2 12.1 249 12
2007-08-06 07:33:47 51°11.029 2°44.444 248 12.1 248 12
2007-08-06 07:33:52 51°11.023 2°44.419 248 12.1 249 12
2007-08-06 07:33:57 51°11.017 2°44.394 248 12 250 12
2007-08-06 07:34:02 51°11.011 2°44.37 248.7 12 250 12
2007-08-06 07:34:07 51°11.006 2°44.344 248.9 12.1 251 12
2007-08-06 07:34:12 51°11 2°44.319 249.7 12.1 251 11.9
2007-08-06 07:34:17 51°10.995 2°44.294 250 12.1 251 12
2007-08-06 07:34:22 51°10.989 2°44.269 250.2 12.1 250 12
2007-08-06 07:34:27 51°10.983 2°44.244 249.9 12.1 251 11.9
2007-08-06 07:34:32 51°10.978 2°44.219 249.9 12.1 251 12
2007-08-06 07:34:37 51°10.972 2°44.194 249.9 12.1 251 12
2007-08-06 07:34:42 51°10.967 2°44.169 249.9 12.1 250 12
2007-08-06 07:34:47 51°10.961 2°44.144 249.7 12.1 250 12
2007-08-06 07:34:52 51°10.955 2°44.119 249.6 12.1 249 12
2007-08-06 07:34:57 51°10.949 2°44.094 249.2 12.1 250 11.9
2007-08-06 07:35:02 51°10.943 2°44.069 248.9 12 249 12
2007-08-06 07:35:07 51°10.938 2°44.044 248.5 12 249 11.9
2007-08-06 07:35:12 51°10.932 2°44.019 248.2 12.1 249 11.9
2007-08-06 07:35:16 51°10.927 2°44 248.2 12.1 250 11.9
2007-08-06 07:35:22 51°10.92 2°43.97 248.3 12 249 11.9
2007-08-06 07:35:27 51°10.914 2°43.945 248.3 12 250 11.9
2007-08-06 07:35:32 51°10.908 2°43.92 248.4 12 250 11.9
2007-08-06 07:35:37 51°10.902 2°43.895 248.9 12 251 11.9
2007-08-06 07:35:42 51°10.897 2°43.87 249.4 12 250 11.9
2007-08-06 07:35:47 51°10.892 2°43.845 249.5 12 252 11.9
2007-08-06 07:35:52 51°10.886 2°43.819 250.3 12 251 11.9
2007-08-06 07:35:57 51°10.881 2°43.794 250.7 12 252 12
2007-08-06 07:36:02 51°10.875 2°43.769 250.7 12 251 11.9
2007-08-06 07:36:07 51°10.87 2°43.744 250.5 12 251 11.9
2007-08-06 07:36:12 51°10.864 2°43.719 250.2 12 250 11.9
2007-08-06 07:36:17 51°10.858 2°43.694 249.6 12 249 12
2007-08-06 07:36:22 51°10.853 2°43.669 248.7 12 249 12
2007-08-06 07:36:27 51°10.846 2°43.644 248.4 12 249 12
2007-08-06 07:36:32 51°10.841 2°43.62 248.1 12 249 11.9
2007-08-06 07:36:37 51°10.835 2°43.595 248.1 12 249 11.9
2007-08-06 07:36:42 51°10.829 2°43.57 248.2 12.1 250 12
2007-08-06 07:36:47 51°10.824 2°43.545 248.8 12.1 251 11.9
2007-08-06 07:36:52 51°10.818 2°43.519 249.4 12.1 251 11.9
2007-08-06 07:36:57 51°10.812 2°43.494 249.9 12.1 251 11.9
2007-08-06 07:37:02 51°10.807 2°43.469 250.2 12.1 251 11.9
2007-08-06 07:37:07 51°10.801 2°43.444 250.1 12.1 250 11.9
2007-08-06 07:37:12 51°10.796 2°43.419 249.6 12.1 251 11.9
2007-08-06 07:37:17 51°10.79 2°43.394 249.6 12.1 251 11.9
2007-08-06 07:37:22 51°10.785 2°43.368 249.6 12.1 250 11.9
2007-08-06 07:37:27 51°10.779 2°43.343 249.6 12.1 250 11.9
2007-08-06 07:37:32 51°10.773 2°43.318 249.4 12.1 250 11.9
2007-08-06 07:37:36 51°10.768 2°43.298 249.3 12.1 250 11.8
2007-08-06 07:37:42 51°10.762 2°43.268 249.3 12.1 250 11.8
2007-08-06 07:37:47 51°10.756 2°43.243 249.3 12.1 251 11.9
2007-08-06 07:37:52 51°10.75 2°43.218 249.5 12.1 250 11.9
2007-08-06 07:37:57 51°10.745 2°43.193 249.5 12.1 251 11.9
2007-08-06 07:38:02 51°10.739 2°43.168 249.6 12.1 250 11.8
2007-08-06 07:38:07 51°10.733 2°43.143 249.6 12.1 250 11.9
2007-08-06 07:38:12 51°10.727 2°43.118 249.4 12.1 249 11.9
2007-08-06 07:38:17 51°10.721 2°43.093 248.9 12.1 249 11.9
2007-08-06 07:38:22 51°10.715 2°43.067 248.5 12.1 250 11.8
2007-08-06 07:38:27 51°10.71 2°43.042 248.6 12.1 250 11.8
2007-08-06 07:38:32 51°10.705 2°43.017 249.2 12.1 252 11.9
2007-08-06 07:38:37 51°10.7 2°42.992 250.4 12.1 253 11.8
2007-08-06 07:38:42 51°10.695 2°42.966 251.7 12 254 11.8
2007-08-06 07:38:47 51°10.69 2°42.941 252.7 12 254 11.9
2007-08-06 07:38:52 51°10.686 2°42.915 253.3 12 255 11.9
2007-08-06 07:38:57 51°10.682 2°42.889 254 12 255 11.8
2007-08-06 07:39:02 51°10.677 2°42.864 254.5 12 255 11.9
2007-08-06 07:39:07 51°10.673 2°42.838 254.7 12 255 11.9
2007-08-06 07:39:12 51°10.669 2°42.813 254.5 12 255 11.9
2007-08-06 07:39:17 51°10.664 2°42.787 254 12 254 11.9
2007-08-06 07:39:22 51°10.659 2°42.762 253.5 12 254 12
2007-08-06 07:39:27 51°10.655 2°42.736 253.5 12 254 11.9
2007-08-06 07:39:32 51°10.65 2°42.711 253.3 12 253 12
2007-08-06 07:39:37 51°10.645 2°42.686 253.1 12 253 12.1
2007-08-06 07:39:42 51°10.641 2°42.66 252.8 12 253 12
2007-08-06 07:39:47 51°10.636 2°42.635 252.8 11.9 254 12
2007-08-06 07:39:52 51°10.631 2°42.61 252.8 12 254 12
2007-08-06 07:39:57 51°10.627 2°42.585 252.8 12 254 12
2007-08-06 07:40:02 51°10.622 2°42.559 252.9 12 254 12
2007-08-06 07:40:07 51°10.618 2°42.534 253.1 12 255 12
2007-08-06 07:40:12 51°10.613 2°42.508 253.5 11.9 255 12.1
2007-08-06 07:40:17 51°10.609 2°42.483 253.8 12 255 12.1
2007-08-06 07:40:22 51°10.605 2°42.457 253.9 12 255 12
2007-08-06 07:40:27 51°10.601 2°42.432 254 11.9 255 12.1
2007-08-06 07:40:32 51°10.596 2°42.407 254 11.9 254 12.1
2007-08-06 07:40:37 51°10.591 2°42.381 253.5 12 254 12.1
2007-08-06 07:40:42 51°10.587 2°42.356 252.9 11.9 254 12.1
2007-08-06 07:40:47 51°10.582 2°42.33 253 12 254 12.2
2007-08-06 07:40:52 51°10.578 2°42.305 253 12 255 12.2
2007-08-06 07:40:57 51°10.574 2°42.279 253.5 12 254 12.3
2007-08-06 07:41:02 51°10.569 2°42.254 253.5 12 255 12.3
2007-08-06 07:41:07 51°10.565 2°42.228 253.9 12 255 12.2
2007-08-06 07:41:12 51°10.561 2°42.203 254 12 255 12.1
2007-08-06 07:41:17 51°10.556 2°42.177 253.8 12 255 12.3
2007-08-06 07:41:22 51°10.552 2°42.151 253.6 12 254 12.2
2007-08-06 07:41:27 51°10.547 2°42.126 253.5 12 254 12.3
2007-08-06 07:41:32 51°10.543 2°42.1 253.3 12 254 12.2
2007-08-06 07:41:37 51°10.538 2°42.075 253 12 254 12.3
2007-08-06 07:41:42 51°10.533 2°42.05 252.8 12 254 12.4
2007-08-06 07:41:47 51°10.529 2°42.024 252.6 12 254 12.4
2007-08-06 07:41:52 51°10.524 2°41.999 252.9 12 254 12.3
2007-08-06 07:41:57 51°10.52 2°41.973 253.1 12 255 12.3
2007-08-06 07:42:02 51°10.516 2°41.947 253.4 12 256 12.5
2007-08-06 07:42:07 51°10.512 2°41.922 253.9 12 255 12.4
2007-08-06 07:42:12 51°10.507 2°41.896 253.9 12 255 12.4
2007-08-06 07:42:17 51°10.503 2°41.871 253.8 12 255 12.4
2007-08-06 07:42:22 51°10.499 2°41.845 254 12 255 12.4
2007-08-06 07:42:27 51°10.494 2°41.819 253.6 12 254 12.4
2007-08-06 07:42:32 51°10.49 2°41.794 253.5 12 254 12.4
2007-08-06 07:42:37 51°10.485 2°41.768 253.2 12 254 12.5
2007-08-06 07:42:42 51°10.481 2°41.743 253.2 12 254 12.6
2007-08-06 07:42:47 51°10.476 2°41.717 253.2 12 254 12.5
2007-08-06 07:42:52 51°10.472 2°41.692 252.9 12 254 12.5
2007-08-06 07:42:57 51°10.467 2°41.667 252.7 12 253 12.6
2007-08-06 07:43:02 51°10.462 2°41.641 252.9 12 254 12.5
2007-08-06 07:43:07 51°10.458 2°41.616 252.9 12 254 12.6
2007-08-06 07:43:12 51°10.453 2°41.59 253 12 254 12.7
2007-08-06 07:43:17 51°10.448 2°41.565 253.4 12 254 12.6
2007-08-06 07:43:22 51°10.444 2°41.539 253.4 12.1 255 12.6
2007-08-06 07:43:27 51°10.44 2°41.513 253.5 12 254 12.7
2007-08-06 07:43:32 51°10.435 2°41.488 253.8 12 255 12.6
2007-08-06 07:43:37 51°10.431 2°41.462 253.9 12 255 12.6
2007-08-06 07:43:42 51°10.427 2°41.437 254 12 255 12.6
2007-08-06 07:43:47 51°10.422 2°41.411 254.1 12 255 12.6
2007-08-06 07:43:52 51°10.418 2°41.386 254.2 12 255 12.7
2007-08-06 07:43:57 51°10.413 2°41.36 254 12 254 12.7
2007-08-06 07:44:02 51°10.409 2°41.335 253.6 12 254 12.6
2007-08-06 07:44:07 51°10.404 2°41.309 253.3 12 254 12.7
2007-08-06 07:44:12 51°10.399 2°41.284 253.3 12 253 12.6
2007-08-06 07:44:17 51°10.395 2°41.259 252.7 12 254 12.6
2007-08-06 07:44:22 51°10.39 2°41.233 252.7 12 254 12.7
2007-08-06 07:44:27 51°10.386 2°41.208 252.5 12 254 12.6
2007-08-06 07:44:32 51°10.381 2°41.182 252.8 12 255 12.6
2007-08-06 07:44:37 51°10.377 2°41.157 253.2 12 255 12.7
2007-08-06 07:44:42 51°10.372 2°41.132 253.4 12 254 12.7
2007-08-06 07:44:47 51°10.368 2°41.106 253.5 12 255 12.7
2007-08-06 07:44:52 51°10.363 2°41.08 253.6 12 255 12.7
2007-08-06 07:44:57 51°10.359 2°41.055 253.7 12 255 12.7
2007-08-06 07:45:02 51°10.355 2°41.029 253.7 12 255 12.7
2007-08-06 07:45:07 51°10.35 2°41.003 253.7 12.1 255 12.7
2007-08-06 07:45:12 51°10.346 2°40.978 253.8 12.1 255 12.8
2007-08-06 07:45:17 51°10.342 2°40.952 253.6 12 255 12.8
2007-08-06 07:45:22 51°10.337 2°40.926 253.6 12.1 254 12.8
2007-08-06 07:45:27 51°10.333 2°40.901 253.2 12.1 255 12.7
2007-08-06 07:45:32 51°10.328 2°40.875 253.3 12.1 254 12.8
2007-08-06 07:45:37 51°10.324 2°40.849 253.3 12.1 255 12.9
2007-08-06 07:45:42 51°10.319 2°40.824 253.2 12.1 254 12.9
2007-08-06 07:45:47 51°10.315 2°40.798 252.5 12.1 254 12.8
2007-08-06 07:45:52 51°10.31 2°40.772 252.5 12.2 254 12.9
2007-08-06 07:45:57 51°10.305 2°40.746 252.7 12.2 255 12.8
2007-08-06 07:46:02 51°10.301 2°40.721 252.8 12.2 255 12.9
2007-08-06 07:46:07 51°10.296 2°40.695 253.3 12.2 255 12.9
2007-08-06 07:46:12 51°10.292 2°40.668 253.3 12.2 255 13
2007-08-06 07:46:17 51°10.288 2°40.643 253.8 12.2 255 12.9
2007-08-06 07:46:22 51°10.283 2°40.617 253.8 12.2 255 12.9
2007-08-06 07:46:27 51°10.279 2°40.591 253.5 12.2 254 12.9
2007-08-06 07:46:32 51°10.274 2°40.565 253.2 12.2 254 12.9
2007-08-06 07:46:37 51°10.269 2°40.539 253.1 12.3 254 13
2007-08-06 07:46:42 51°10.265 2°40.512 252.9 12.3 254 13
2007-08-06 07:46:47 51°10.26 2°40.487 252.8 12.2 254 13
2007-08-06 07:46:52 51°10.255 2°40.461 252.5 12.2 254 13
2007-08-06 07:46:57 51°10.25 2°40.435 252.5 12.2 254 13.1
2007-08-06 07:47:02 51°10.246 2°40.409 252.7 12.3 254 13
2007-08-06 07:47:07 51°10.241 2°40.383 252.7 12.3 254 13.1
2007-08-06 07:47:12 51°10.236 2°40.357 253.1 12.3 254 13.1
2007-08-06 07:47:17 51°10.232 2°40.331 253.2 12.3 254 13
2007-08-06 07:47:22 51°10.227 2°40.305 253.3 12.3 254 13
2007-08-06 07:47:27 51°10.223 2°40.279 253.3 12.3 254 13
2007-08-06 07:47:32 51°10.218 2°40.252 253.3 12.3 254 13.1
2007-08-06 07:47:37 51°10.213 2°40.226 253.3 12.3 254 13.1
2007-08-06 07:47:42 51°10.209 2°40.2 253.1 12.3 253 13.2
2007-08-06 07:47:47 51°10.204 2°40.174 252.9 12.3 253 13.2
2007-08-06 07:47:51 51°10.2 2°40.153 252.7 12.2 254 13.2
2007-08-06 07:47:57 51°10.194 2°40.122 252.9 12.2 253 13.2
2007-08-06 07:48:02 51°10.19 2°40.096 253 12.3 254 13.2
2007-08-06 07:48:07 51°10.185 2°40.07 253.1 12.3 253 13.3
2007-08-06 07:48:12 51°10.18 2°40.044 253.1 12.3 254 13.2
2007-08-06 07:48:17 51°10.175 2°40.018 253.4 12.3 254 13.2
2007-08-06 07:48:22 51°10.171 2°39.992 253.7 12.3 254 13.2
2007-08-06 07:48:27 51°10.166 2°39.966 253.3 12.3 254 13.3
2007-08-06 07:48:32 51°10.161 2°39.94 253.5 12.2 254 13.3
2007-08-06 07:48:37 51°10.157 2°39.914 253.8 12.3 255 13.3
2007-08-06 07:48:42 51°10.152 2°39.888 253.9 12.3 254 13.4
2007-08-06 07:48:47 51°10.148 2°39.861 254 12.3 254 13.4
2007-08-06 07:48:52 51°10.143 2°39.835 253.5 12.3 254 13.3
2007-08-06 07:48:57 51°10.138 2°39.809 253.3 12.3 254 13.4
2007-08-06 07:49:02 51°10.134 2°39.783 253.2 12.3 254 13.5
2007-08-06 07:49:07 51°10.129 2°39.756 253.2 12.3 254 13.5
2007-08-06 07:49:12 51°10.125 2°39.73 253.2 12.3 253 13.4
2007-08-06 07:49:17 51°10.12 2°39.704 252.9 12.3 253 13.5
2007-08-06 07:49:22 51°10.115 2°39.678 252.5 12.3 254 13.5
2007-08-06 07:49:27 51°10.11 2°39.652 252.6 12.3 254 13.6
2007-08-06 07:49:32 51°10.105 2°39.626 253 12.3 254 13.6
2007-08-06 07:49:37 51°10.101 2°39.6 253 12.3 254 13.6
2007-08-06 07:49:42 51°10.096 2°39.574 253.3 12.3 253 13.6
2007-08-06 07:49:47 51°10.091 2°39.548 253.2 12.3 253 13.6
2007-08-06 07:49:52 51°10.086 2°39.522 253 12.3 254 13.7
2007-08-06 07:49:57 51°10.081 2°39.496 253.2 12.3 254 13.7
2007-08-06 07:50:02 51°10.077 2°39.471 253.8 11.6 255 13.7
2007-08-06 07:50:07 51°10.074 2°39.448 254.2 10.7 256 13.7
2007-08-06 07:50:11 51°10.071 2°39.431 254.9 9.9 257 13.8
2007-08-06 07:50:17 51°10.068 2°39.407 255.8 9.2 258 13.9
2007-08-06 07:50:22 51°10.065 2°39.389 256.7 8.6 259 14
2007-08-06 07:50:27 51°10.063 2°39.371 257.4 8.1 260 14
2007-08-06 07:50:32 51°10.061 2°39.355 258.2 7.6 260 14.1
2007-08-06 07:50:36 51°10.06 2°39.343 258.7 7 261 14.2
2007-08-06 07:50:42 51°10.059 2°39.325 259.6 6.6 262 14.3
2007-08-06 07:50:47 51°10.058 2°39.312 260.8 6.2 264 14.3
2007-08-06 07:50:52 51°10.057 2°39.299 262 5.8 266 14.3
2007-08-06 07:50:57 51°10.057 2°39.287 263.8 5.5 269 14.4
2007-08-06 07:51:02 51°10.057 2°39.276 266.6 5.2 271 14.4
2007-08-06 07:51:07 51°10.057 2°39.265 268.8 4.8 274 14.4
2007-08-06 07:51:12 51°10.058 2°39.255 270.9 4.6 277 14.5
2007-08-06 07:51:17 51°10.059 2°39.246 273.5 4.3 280 14.5
2007-08-06 07:51:22 51°10.06 2°39.237 276 4.1 282 14.6
2007-08-06 07:51:27 51°10.061 2°39.228 278.7 4 284 14.6
2007-08-06 07:51:32 51°10.063 2°39.22 280.5 3.9 285 14.7
2007-08-06 07:51:37 51°10.064 2°39.212 282.3 3.9 288 14.7
2007-08-06 07:51:42 51°10.066 2°39.204 283.8 3.8 290 14.8
2007-08-06 07:51:47 51°10.068 2°39.196 285.2 3.8 290 14.7
2007-08-06 07:51:52 51°10.07 2°39.188 286.3 4.1 292 14.9
2007-08-06 07:51:57 51°10.072 2°39.179 286.8 4.3 291 14.9
2007-08-06 07:52:02 51°10.075 2°39.17 287.4 4.5 292 15
2007-08-06 07:52:07 51°10.077 2°39.16 287.4 4.6 291 15
2007-08-06 07:52:12 51°10.08 2°39.15 287.4 4.8 292 15
2007-08-06 07:52:17 51°10.082 2°39.14 287.6 4.9 292 15.1
2007-08-06 07:52:22 51°10.085 2°39.13 287.7 5 293 15.1
2007-08-06 07:52:27 51°10.087 2°39.12 287.9 5.1 291 15.2
2007-08-06 07:52:31 51°10.09 2°39.111 288 5.2 292 15.3
2007-08-06 07:52:37 51°10.093 2°39.098 288.1 5.3 292 15.3
2007-08-06 07:52:42 51°10.096 2°39.087 288.2 5.4 293 15.3
2007-08-06 07:52:47 51°10.099 2°39.076 288.4 5.5 293 15.4
2007-08-06 07:52:52 51°10.102 2°39.065 288.4 5.6 293 15.5
2007-08-06 07:52:57 51°10.105 2°39.053 288.7 5.6 293 15.5
2007-08-06 07:53:02 51°10.108 2°39.041 288.8 6 292 15.6
2007-08-06 07:53:07 51°10.112 2°39.027 288.9 6.6 292 15.6
2007-08-06 07:53:12 51°10.115 2°39.013 289 7.1 292 15.7
2007-08-06 07:53:17 51°10.119 2°38.997 288.5 7.6 289 15.7
2007-08-06 07:53:22 51°10.122 2°38.98 287.4 7.9 289 15.8
2007-08-06 07:53:27 51°10.126 2°38.963 286.2 8.3 287 15.9
2007-08-06 07:53:32 51°10.129 2°38.945 285.3 8.5 287 15.9
2007-08-06 07:53:37 51°10.132 2°38.926 284.5 8.7 285 16
2007-08-06 07:53:42 51°10.136 2°38.907 283.7 8.9 285 16
2007-08-06 07:53:47 51°10.139 2°38.888 283 9 284 16.1
2007-08-06 07:53:52 51°10.142 2°38.869 282.3 9.1 284 16.1
2007-08-06 07:53:57 51°10.145 2°38.849 281.9 9.3 284 16.2
2007-08-06 07:54:02 51°10.148 2°38.829 281.9 9.3 285 16.4
2007-08-06 07:54:07 51°10.152 2°38.809 282.3 9.4 285 16.2
2007-08-06 07:54:12 51°10.155 2°38.789 282.8 9.5 286 16.5
2007-08-06 07:54:17 51°10.159 2°38.769 283.4 9.5 287 16.5
2007-08-06 07:54:22 51°10.164 2°38.749 284.4 9.5 289 16.4
2007-08-06 07:54:27 51°10.168 2°38.729 285.5 9.6 290 16.5
2007-08-06 07:54:32 51°10.173 2°38.709 286.9 9.6 291 16.4
2007-08-06 07:54:37 51°10.178 2°38.69 288.4 9.6 291 16.5
2007-08-06 07:54:42 51°10.183 2°38.67 289.1 9.6 291 16.5
2007-08-06 07:54:47 51°10.188 2°38.65 289.7 9.6 292 16.8
2007-08-06 07:54:52 51°10.193 2°38.63 290.4 9.6 292 16.7
2007-08-06 07:54:57 51°10.198 2°38.611 291.2 9.7 293 16.9
2007-08-06 07:55:02 51°10.203 2°38.591 292.1 9.7 294 16.5
2007-08-06 07:55:07 51°10.209 2°38.572 293.2 9.8 296 16.7
2007-08-06 07:55:12 51°10.215 2°38.553 294.5 9.8 296 16.6
2007-08-06 07:55:17 51°10.222 2°38.533 295.1 9.7 296 16.6
2007-08-06 07:55:22 51°10.227 2°38.514 295.1 9.7 296 16.7
2007-08-06 07:55:27 51°10.233 2°38.495 294.6 9.7 294 17
2007-08-06 07:55:32 51°10.238 2°38.475 293.6 9.7 293 16.9
2007-08-06 07:55:37 51°10.243 2°38.455 292 9.7 291 16.8
2007-08-06 07:55:42 51°10.248 2°38.435 290.3 9.6 289 16.7
2007-08-06 07:55:47 51°10.251 2°38.415 288.1 9.6 287 16.8
2007-08-06 07:55:52 51°10.255 2°38.394 286 9.5 285 16.8
2007-08-06 07:55:57 51°10.257 2°38.374 283.8 9.5 282 16.9
2007-08-06 07:56:02 51°10.259 2°38.353 281.4 9.5 279 17
2007-08-06 07:56:07 51°10.261 2°38.333 278.8 9.4 277 17.1
2007-08-06 07:56:12 51°10.262 2°38.312 276.5 9.4 275 17.2
2007-08-06 07:56:17 51°10.263 2°38.291 274.2 9.4 273 17.2
2007-08-06 07:56:22 51°10.264 2°38.27 272.1 9.5 273 17.3
2007-08-06 07:56:27 51°10.265 2°38.25 271.5 9.5 275 17.4
2007-08-06 07:56:32 51°10.266 2°38.229 272.2 9.5 275 17.4
2007-08-06 07:56:37 51°10.268 2°38.208 273.9 9.5 278 17.7
2007-08-06 07:56:42 51°10.269 2°38.187 276 9.5 278 17.5
2007-08-06 07:56:47 51°10.271 2°38.166 276.7 9.4 278 17.5
2007-08-06 07:56:52 51°10.273 2°38.148 276.7 8.7 277 17.5
2007-08-06 07:56:57 51°10.274 2°38.13 276.1 8 277 17.6
2007-08-06 07:57:02 51°10.275 2°38.114 275.4 7.5 276 17.7
2007-08-06 07:57:07 51°10.276 2°38.098 274.5 7 275 17.8
2007-08-06 07:57:12 51°10.277 2°38.084 273.4 6.6 275 17.7
2007-08-06 07:57:17 51°10.278 2°38.07 272.6 6.2 274 17.8
2007-08-06 07:57:22 51°10.278 2°38.057 271.8 5.9 273 17.8
2007-08-06 07:57:27 51°10.278 2°38.045 270.7 5.5 272 17.9
2007-08-06 07:57:32 51°10.279 2°38.033 269.6 5.3 272 18
2007-08-06 07:57:36 51°10.279 2°38.024 268.4 5 270 18.1
2007-08-06 07:57:42 51°10.279 2°38.012 267.2 4.7 269 18.1
2007-08-06 07:57:47 51°10.278 2°38.002 266.1 4.5 269 18.2
2007-08-06 07:57:52 51°10.278 2°37.992 265 4.3 268 18.2
2007-08-06 07:57:57 51°10.278 2°37.983 263.9 4.1 267 18.2
2007-08-06 07:58:02 51°10.278 2°37.975 262.9 3.9 266 18.2
2007-08-06 07:58:07 51°10.277 2°37.966 262 3.8 265 18.3
2007-08-06 07:58:12 51°10.277 2°37.959 260.9 3.6 264 18.3
2007-08-06 07:58:17 51°10.276 2°37.951 259.8 3.4 264 18.3
2007-08-06 07:58:22 51°10.275 2°37.944 259 3.3 262 18.3
2007-08-06 07:58:27 51°10.275 2°37.937 258.2 3.2 261 18.3
2007-08-06 07:58:32 51°10.274 2°37.93 257.3 3 261 18.3
2007-08-06 07:58:37 51°10.273 2°37.924 256.8 2.9 261 18.2
2007-08-06 07:58:42 51°10.272 2°37.918 256.3 2.8 261 18.3
2007-08-06 07:58:47 51°10.272 2°37.912 256.3 2.7 262 18.3
2007-08-06 07:58:52 51°10.271 2°37.906 256.3 2.7 263 18.3
2007-08-06 07:58:57 51°10.271 2°37.9 257 2.7 264 18.2
2007-08-06 07:59:02 51°10.271 2°37.894 258.2 2.8 265 18.3
2007-08-06 07:59:07 51°10.271 2°37.887 260.1 2.9 268 18.4
2007-08-06 07:59:12 51°10.271 2°37.881 262.7 2.9 271 18.5
2007-08-06 07:59:17 51°10.271 2°37.875 265.7 3 275 18.5
2007-08-06 07:59:22 51°10.272 2°37.868 269 3 279 18.5
2007-08-06 07:59:27 51°10.273 2°37.862 272.4 3 283 18.6
2007-08-06 07:59:32 51°10.274 2°37.855 275.8 3.1 287 18.7
2007-08-06 07:59:37 51°10.275 2°37.849 279.5 3.1 291 18.8
2007-08-06 07:59:42 51°10.277 2°37.842 283 3.1 294 18.7
2007-08-06 07:59:47 51°10.28 2°37.836 286.8 3.2 300 18.7
2007-08-06 07:59:52 51°10.282 2°37.831 290.9 3.2 307 18.7
2007-08-06 07:59:57 51°10.285 2°37.826 296 3.3 313 18.7
2007-08-06 08:00:02 51°10.289 2°37.821 301.6 3.3 320 18.9
2007-08-06 08:00:07 51°10.293 2°37.816 308 3.4 326 18.9
2007-08-06 08:00:12 51°10.297 2°37.812 314.3 3.5 333 18.9
2007-08-06 08:00:17 51°10.302 2°37.81 320.8 3.5 339 18.8
2007-08-06 08:00:22 51°10.306 2°37.808 327.3 3.6 345 19
2007-08-06 08:00:27 51°10.311 2°37.806 333.8 3.7 351 18.9
2007-08-06 08:00:32 51°10.317 2°37.806 340.4 3.7 358 19.1
2007-08-06 08:00:37 51°10.322 2°37.806 346.7 3.8 3 19
2007-08-06 08:00:42 51°10.327 2°37.808 353.3 3.9 10 18.9
2007-08-06 08:00:47 51°10.332 2°37.811 0.1 3.9 17 18.9
2007-08-06 08:00:52 51°10.338 2°37.814 6.9 4 22 19
2007-08-06 08:00:57 51°10.343 2°37.818 13.7 4.1 27 18.9
2007-08-06 08:01:02 51°10.348 2°37.823 20.4 4.1 32 19
2007-08-06 08:01:07 51°10.352 2°37.828 26.8 4.1 37 18.9
2007-08-06 08:01:12 51°10.356 2°37.834 32.8 4.1 42 19.2
2007-08-06 08:01:17 51°10.36 2°37.841 39.1 4.2 47 19.1
2007-08-06 08:01:22 51°10.364 2°37.849 45.7 4.2 53 19
2007-08-06 08:01:27 51°10.367 2°37.856 52.2 4.2 58 19.1
2007-08-06 08:01:32 51°10.37 2°37.865 58.6 4.2 63 19
2007-08-06 08:01:37 51°10.372 2°37.873 64.5 4.2 67 18.9
2007-08-06 08:01:42 51°10.374 2°37.882 70.6 4.2 72 18.9
2007-08-06 08:01:47 51°10.375 2°37.891 76.9 4.2 77 18.9
2007-08-06 08:01:52 51°10.376 2°37.9 82.9 4.1 82 19
2007-08-06 08:01:57 51°10.376 2°37.909 88.7 4.1 87 19.1
2007-08-06 08:02:02 51°10.376 2°37.918 94.8 4 92 18.9
2007-08-06 08:02:07 51°10.375 2°37.927 100.8 4 98 19
2007-08-06 08:02:12 51°10.374 2°37.935 106.6 3.9 102 18.8
2007-08-06 08:02:17 51°10.372 2°37.944 112.3 3.9 107 18.9
2007-08-06 08:02:22 51°10.37 2°37.951 118 3.8 112 18.7
2007-08-06 08:02:27 51°10.368 2°37.959 123.6 3.8 117 18.7
2007-08-06 08:02:32 51°10.365 2°37.966 129.2 3.8 121 18.8
2007-08-06 08:02:37 51°10.362 2°37.973 134.1 3.9 124 18.8
2007-08-06 08:02:42 51°10.359 2°37.98 137.9 3.9 128 18.7
2007-08-06 08:02:47 51°10.355 2°37.986 141.4 3.9 133 18.7
2007-08-06 08:02:52 51°10.351 2°37.992 145.8 3.8 140 18.7
2007-08-06 08:02:57 51°10.347 2°37.997 151.1 3.8 146 18.6
2007-08-06 08:03:02 51°10.342 2°38 157.4 3.8 154 18.6
2007-08-06 08:03:07 51°10.337 2°38.003 164.3 3.7 161 18.4
2007-08-06 08:03:12 51°10.332 2°38.004 171.3 3.6 168 18.4
2007-08-06 08:03:17 51°10.328 2°38.005 178.4 3.6 176 18.2
2007-08-06 08:03:22 51°10.323 2°38.004 185.2 3.5 183 18.2
2007-08-06 08:03:27 51°10.318 2°38.003 191.8 3.4 190 18.3
2007-08-06 08:03:32 51°10.314 2°38.001 198.8 3.4 199 18.4
2007-08-06 08:03:37 51°10.309 2°37.998 205.7 3.3 206 18.2
2007-08-06 08:03:42 51°10.305 2°37.993 212 3.4 214 18.3
2007-08-06 08:03:47 51°10.302 2°37.989 218.5 3.3 221 18.3
2007-08-06 08:03:52 51°10.299 2°37.983 225 3.3 229 18.3
2007-08-06 08:03:57 51°10.296 2°37.977 231.5 3.3 235 18.3
2007-08-06 08:04:02 51°10.294 2°37.97 237.8 3.3 244 18.2
2007-08-06 08:04:07 51°10.293 2°37.964 244.3 3.3 249 18.3
2007-08-06 08:04:12 51°10.292 2°37.956 250.3 3.3 258 18.2
2007-08-06 08:04:16 51°10.292 2°37.95 256.7 3.4 265 18.2
2007-08-06 08:04:22 51°10.292 2°37.941 263.1 3.4 273 18.2
2007-08-06 08:04:27 51°10.293 2°37.934 269.6 3.5 281 18.3
2007-08-06 08:04:32 51°10.294 2°37.926 276.4 3.6 288 18.4
2007-08-06 08:04:37 51°10.297 2°37.919 283 3.6 297 18.4
2007-08-06 08:04:42 51°10.3 2°37.912 288.6 3.7 306 18.5
2007-08-06 08:04:47 51°10.303 2°37.906 297.2 3.8 314 18.6
2007-08-06 08:04:52 51°10.308 2°37.901 304.8 3.9 322 18.6
2007-08-06 08:04:57 51°10.313 2°37.896 312.5 4 330 18.6
2007-08-06 08:05:02 51°10.318 2°37.893 320 4.1 337 18.6
2007-08-06 08:05:07 51°10.323 2°37.891 327.7 4.2 345 18.7
2007-08-06 08:05:12 51°10.329 2°37.889 335.5 4.3 352 18.7
2007-08-06 08:05:17 51°10.335 2°37.889 343.3 4.4 359 18.8
2007-08-06 08:05:22 51°10.342 2°37.89 350.9 4.6 4 18.8
2007-08-06 08:05:27 51°10.348 2°37.892 358.7 4.6 13 18.7
2007-08-06 08:05:32 51°10.354 2°37.896 6.1 4.7 19 18.8
2007-08-06 08:05:37 51°10.36 2°37.9 13.8 4.8 25 18.8
2007-08-06 08:05:42 51°10.366 2°37.906 21.7 4.9 31 18.9